Time,TemperatureF,DewpointF,PressureIn,WindDirection,WindDirectionDegrees,WindSpeedMPH,WindSpeedGustMPH,Humidity,HourlyPrecipIn,Conditions,Clouds,dailyrainin,SoftwareType,DateUTC
2013-07-24 00:30:00,59.3,57.6,29.64,WSW,241,0.0,0.0,94,0.00,,,0.00,Weather View 32 v70,2013-07-24 08:30:00,
2013-07-24 00:59:00,57.6,56.2,29.64,WSW,241,0.0,0.0,95,0.00,,,0.00,Weather View 32 v70,2013-07-24 08:59:00,
2013-07-24 01:00:00,57.6,56.2,29.64,WSW,241,0.0,0.0,95,0.00,,,0.00,Weather View 32 v70,2013-07-24 09:00:00,
2013-07-24 01:29:00,55.8,54.1,29.64,WSW,241,0.0,0.0,94,0.00,,,0.00,Weather View 32 v70,2013-07-24 09:29:00,
2013-07-24 01:59:00,54.4,53.8,29.64,WSW,241,0.0,0.0,98,0.00,,,0.00,Weather View 32 v70,2013-07-24 09:59:00,
2013-07-24 02:00:00,54.4,53.8,29.64,WSW,241,0.0,0.0,98,0.00,,,0.00,Weather View 32 v70,2013-07-24 10:00:00,
2013-07-24 02:29:00,53.6,53.6,29.64,WSW,241,0.0,0.0,100,0.00,,,0.00,Weather View 32 v70,2013-07-24 10:29:00,
2013-07-24 02:59:00,52.8,52.8,29.65,WSW,241,0.0,0.0,100,0.00,,,0.00,Weather View 32 v70,2013-07-24 10:59:00,
2013-07-24 03:00:00,52.8,52.8,29.65,WSW,241,0.0,0.0,100,0.00,,,0.00,Weather View 32 v70,2013-07-24 11:00:00,
2013-07-24 03:29:00,52.8,52.8,29.64,WSW,241,0.0,0.0,100,0.00,,,0.00,Weather View 32 v70,2013-07-24 11:29:00,
2013-07-24 03:59:00,53.3,53.3,29.65,WSW,241,0.0,0.0,100,0.00,,,0.00,Weather View 32 v70,2013-07-24 11:59:00,
2013-07-24 04:00:00,53.3,53.3,29.65,WSW,241,0.0,0.0,100,0.00,,,0.00,Weather View 32 v70,2013-07-24 12:00:00,
2013-07-24 04:29:00,53.1,53.1,29.65,WSW,241,0.0,0.0,100,0.00,,,0.00,Weather View 32 v70,2013-07-24 12:29:00,
2013-07-24 04:59:00,54.1,54.1,29.65,WSW,241,0.0,0.0,100,0.00,,,0.00,Weather View 32 v70,2013-07-24 12:59:00,
2013-07-24 05:00:00,54.1,54.1,29.65,WSW,241,0.0,0.0,100,0.00,,,0.00,Weather View 32 v70,2013-07-24 13:00:00,
2013-07-24 05:29:00,55.0,55.0,29.64,WSW,241,0.0,0.0,100,0.00,,,0.00,Weather View 32 v70,2013-07-24 13:29:00,
2013-07-24 05:59:00,56.0,56.0,29.65,WSW,241,0.0,0.0,100,0.00,,,0.00,Weather View 32 v70,2013-07-24 13:59:00,
2013-07-24 06:00:00,56.0,56.0,29.65,WSW,241,0.0,0.0,100,0.00,,,0.00,Weather View 32 v70,2013-07-24 14:00:00,
2013-07-24 06:29:00,57.0,57.0,29.65,WSW,241,0.0,0.0,100,0.00,,,0.00,Weather View 32 v70,2013-07-24 14:29:00,
2013-07-24 06:59:00,58.4,58.4,29.65,WSW,241,0.0,0.0,100,0.00,,,0.00,Weather View 32 v70,2013-07-24 14:59:00,
2013-07-24 07:00:00,58.4,58.4,29.65,WSW,241,0.0,0.0,100,0.00,,,0.00,Weather View 32 v70,2013-07-24 15:00:00,
2013-07-24 07:29:00,59.6,59.6,29.65,WSW,241,0.0,0.0,100,0.00,,,0.00,Weather View 32 v70,2013-07-24 15:29:00,
2013-07-24 07:59:00,61.0,61.0,29.65,WSW,241,0.0,0.0,100,0.00,,,0.00,Weather View 32 v70,2013-07-24 15:59:00,
2013-07-24 08:00:00,61.0,61.0,29.65,WSW,241,0.0,0.0,100,0.00,,,0.00,Weather View 32 v70,2013-07-24 16:00:00,
2013-07-24 08:29:00,62.7,61.8,29.65,WSW,241,0.0,4.0,97,0.00,,,0.00,Weather View 32 v70,2013-07-24 16:29:00,
2013-07-24 08:59:00,63.9,62.1,29.65,WSW,241,0.0,5.0,94,0.00,,,0.00,Weather View 32 v70,2013-07-24 16:59:00,
2013-07-24 09:00:00,63.9,62.1,29.65,WSW,241,0.0,5.0,94,0.00,,,0.00,Weather View 32 v70,2013-07-24 17:00:00,
2013-07-24 09:28:00,65.4,61.7,29.64,SW,230,0.0,5.0,88,0.00,,,0.00,Weather View 32 v70,2013-07-24 17:28:00,
2013-07-24 09:58:00,66.1,61.4,29.64,WSW,246,0.0,8.0,85,0.00,,,0.00,Weather View 32 v70,2013-07-24 17:58:00,
2013-07-24 10:00:00,66.1,61.4,29.64,WSW,246,0.0,8.0,85,0.00,,,0.00,Weather View 32 v70,2013-07-24 18:00:00,
2013-07-24 10:28:00,67.4,62.0,29.64,West,266,4.0,11.0,83,0.00,,,0.00,Weather View 32 v70,2013-07-24 18:28:00,
2013-07-24 10:58:00,67.6,63.6,29.64,WSW,254,1.0,12.0,87,0.00,,,0.00,Weather View 32 v70,2013-07-24 18:58:00,
2013-07-24 11:00:00,67.6,63.6,29.64,WSW,254,1.0,12.0,87,0.00,,,0.00,Weather View 32 v70,2013-07-24 19:00:00,
2013-07-24 11:28:00,69.0,62.9,29.64,SSW,211,3.0,12.0,81,0.00,,,0.00,Weather View 32 v70,2013-07-24 19:28:00,
2013-07-24 11:58:00,70.4,63.6,29.63,SW,214,2.0,12.0,79,0.00,,,0.00,Weather View 32 v70,2013-07-24 19:58:00,
2013-07-24 12:00:00,70.4,63.6,29.63,SW,214,2.0,12.0,79,0.00,,,0.00,Weather View 32 v70,2013-07-24 20:00:00,
2013-07-24 12:28:00,70.6,57.4,29.63,SSW,206,5.0,12.0,63,0.00,,,0.00,Weather View 32 v70,2013-07-24 20:28:00,
2013-07-24 12:59:00,70.9,57.6,29.63,WSW,240,3.0,12.0,63,0.00,,,0.00,Weather View 32 v70,2013-07-24 20:59:00,
2013-07-24 13:00:00,70.9,57.6,29.63,WSW,240,3.0,12.0,63,0.00,,,0.00,Weather View 32 v70,2013-07-24 21:00:00,
2013-07-24 13:29:00,70.9,57.2,29.63,SW,222,4.0,11.0,62,0.00,,,0.00,Weather View 32 v70,2013-07-24 21:29:00,
2013-07-24 13:58:00,71.8,58.5,29.62,WSW,255,5.0,14.0,63,0.00,,,0.00,Weather View 32 v70,2013-07-24 21:58:00,
2013-07-24 14:00:00,71.8,58.5,29.62,WSW,255,5.0,14.0,63,0.00,,,0.00,Weather View 32 v70,2013-07-24 22:00:00,
2013-07-24 14:28:00,70.8,57.5,29.62,West,264,4.0,14.0,63,0.00,,,0.00,Weather View 32 v70,2013-07-24 22:28:00,
2013-07-24 14:58:00,70.9,58.1,29.62,SW,226,1.0,8.0,64,0.00,,,0.00,Weather View 32 v70,2013-07-24 22:58:00,
2013-07-24 15:00:00,70.9,58.1,29.62,SW,226,1.0,8.0,64,0.00,,,0.00,Weather View 32 v70,2013-07-24 23:00:00,
2013-07-24 15:28:00,71.1,57.8,29.61,SW,226,3.0,11.0,63,0.00,,,0.00,Weather View 32 v70,2013-07-24 23:28:00,
2013-07-24 15:58:00,71.8,59.4,29.61,SW,219,3.0,12.0,65,0.00,,,0.00,Weather View 32 v70,2013-07-24 23:58:00,
2013-07-24 16:00:00,71.8,59.4,29.61,SW,219,3.0,12.0,65,0.00,,,0.00,Weather View 32 v70,2013-07-25 00:00:00,
2013-07-24 16:28:00,71.7,57.9,29.60,SW,228,2.0,12.0,62,0.00,,,0.00,Weather View 32 v70,2013-07-25 00:28:00,
2013-07-24 16:58:00,72.2,63.8,29.59,SW,233,2.0,11.0,75,0.00,,,0.00,Weather View 32 v70,2013-07-25 00:58:00,
2013-07-24 17:00:00,72.2,63.8,29.59,SW,233,2.0,11.0,75,0.00,,,0.00,Weather View 32 v70,2013-07-25 01:00:00,
2013-07-24 17:28:00,71.6,63.2,29.59,SSW,201,3.0,11.0,75,0.00,,,0.00,Weather View 32 v70,2013-07-25 01:28:00,
2013-07-24 17:59:00,68.0,64.0,29.60,WSW,252,1.0,16.0,87,0.00,,,0.00,Weather View 32 v70,2013-07-25 01:59:00,
2013-07-24 18:00:00,68.0,64.0,29.60,WSW,252,1.0,16.0,87,0.00,,,0.00,Weather View 32 v70,2013-07-25 02:00:00,
2013-07-24 18:29:00,68.9,63.8,29.59,WSW,258,0.0,16.0,84,0.00,,,0.00,Weather View 32 v70,2013-07-25 02:29:00,
2013-07-24 18:58:00,70.2,65.1,29.58,WSW,249,2.0,11.0,84,0.00,,,0.00,Weather View 32 v70,2013-07-25 02:58:00,
2013-07-24 19:00:00,70.2,65.1,29.58,WSW,249,2.0,11.0,84,0.00,,,0.00,Weather View 32 v70,2013-07-25 03:00:00,
2013-07-24 19:28:00,69.3,63.9,29.58,SSW,210,0.0,13.0,83,0.00,,,0.00,Weather View 32 v70,2013-07-25 03:28:00,
2013-07-24 19:58:00,68.2,63.5,29.59,SW,228,1.0,13.0,85,0.00,,,0.00,Weather View 32 v70,2013-07-25 03:58:00,
2013-07-24 20:00:00,68.2,63.5,29.59,SW,228,1.0,13.0,85,0.00,,,0.00,Weather View 32 v70,2013-07-25 04:00:00,
2013-07-24 20:28:00,68.2,63.2,29.59,SW,224,1.0,11.0,84,0.00,,,0.00,Weather View 32 v70,2013-07-25 04:28:00,
2013-07-24 20:58:00,68.3,63.3,29.59,WSW,239,0.0,9.0,84,0.00,,,0.00,Weather View 32 v70,2013-07-25 04:58:00,
2013-07-24 21:00:00,68.3,63.3,29.59,WSW,239,0.0,9.0,84,0.00,,,0.00,Weather View 32 v70,2013-07-25 05:00:00,
2013-07-24 21:28:00,68.1,62.7,29.59,SW,232,0.0,9.0,83,0.00,,,0.00,Weather View 32 v70,2013-07-25 05:28:00,
2013-07-24 21:58:00,67.5,62.5,29.59,SW,230,0.0,7.0,84,0.00,,,0.00,Weather View 32 v70,2013-07-25 05:58:00,
2013-07-24 22:00:00,67.5,62.5,29.59,SW,230,0.0,7.0,84,0.00,,,0.00,Weather View 32 v70,2013-07-25 06:00:00,
2013-07-24 22:28:00,66.8,62.5,29.59,SW,233,0.0,7.0,86,0.00,,,0.00,Weather View 32 v70,2013-07-25 06:28:00,
2013-07-24 22:59:00,66.6,62.3,29.59,SW,225,0.0,6.0,86,0.00,,,0.00,Weather View 32 v70,2013-07-25 06:59:00,
2013-07-24 23:00:00,66.6,62.3,29.59,SW,225,0.0,6.0,86,0.00,,,0.00,Weather View 32 v70,2013-07-25 07:00:00,
2013-07-24 23:29:00,66.0,62.0,29.59,SW,225,0.0,6.0,87,0.00,,,0.00,Weather View 32 v70,2013-07-25 07:29:00,
2013-07-24 23:58:00,65.5,57.7,29.59,SW,225,0.0,4.0,76,0.00,,,0.00,Weather View 32 v70,2013-07-25 07:58:00,